Flight Track Log - Related Links

Times and Time Zones

All times are in EDT time to prevent confusion due to time zone crossing. See the TAM3362 flight status page for this flight to view local times or setup timezone preferences in your user account.

Time Position Orientation Groundspeed Altitude Reporting Facility
EDT Latitude Longitude Course Direction KTS MPH feet Rate Location/Type
Thu 08:19:00 AM -22.8231 -45.2248 62° Northeast  Level Estimated
Thu 08:20:00 AM -22.7848 -45.1474 62° Northeast  Level Estimated
Thu 08:21:00 AM -22.7463 -45.0700 62° Northeast  Level Estimated
Thu 08:22:00 AM -22.7079 -44.9927 62° Northeast  Level Estimated
Thu 08:23:00 AM -22.6694 -44.9154 62° Northeast  Level Estimated
Thu 08:24:00 AM -22.6309 -44.8381 62° Northeast  Level Estimated
Thu 08:25:00 AM -22.5923 -44.7609 62° Northeast  Level Estimated
Thu 08:26:00 AM -22.5537 -44.6838 62° Northeast  Level Estimated
Thu 08:27:00 AM -22.5151 -44.6067 62° Northeast  Level Estimated
Thu 08:28:00 AM -22.4764 -44.5296 62° Northeast  Level Estimated
Thu 08:29:00 AM -22.4377 -44.4526 61° Northeast  Level Estimated
Thu 08:30:00 AM -22.3989 -44.3756 61° Northeast  Level Estimated
Thu 08:31:00 AM -22.3601 -44.2986 61° Northeast  Level Estimated
Thu 08:32:00 AM -22.3213 -44.2217 61° Northeast  Level Estimated
Thu 08:33:00 AM -22.2824 -44.1449 61° Northeast  Level Estimated
Thu 08:34:00 AM -22.2436 -44.0681 61° Northeast  Level Estimated
Thu 08:35:00 AM -22.2046 -43.9913 61° Northeast  Level Estimated
Thu 08:36:00 AM -22.1657 -43.9146 61° Northeast  Level Estimated
Thu 08:37:00 AM -22.1267 -43.8379 61° Northeast  Level Estimated
Thu 08:38:00 AM -22.0876 -43.7612 61° Northeast  Level Estimated
Thu 08:39:00 AM -22.0485 -43.6846 61° Northeast  Level Estimated
Thu 08:40:00 AM -22.0094 -43.6081 61° Northeast  Level Estimated
Thu 08:41:00 AM -21.9703 -43.5315 61° Northeast  Level Estimated
Thu 08:42:00 AM -21.9311 -43.4551 61° Northeast  Level Estimated
Thu 08:43:00 AM -21.8919 -43.3786 61° Northeast  Level Estimated
Thu 08:44:00 AM -21.8526 -43.3022 61° Northeast  Level Estimated
Thu 08:45:00 AM -21.8134 -43.2259 61° Northeast  Level Estimated
Thu 08:46:00 AM -21.7740 -43.1496 61° Northeast  Level Estimated
Thu 08:47:00 AM -21.7347 -43.0733 61° Northeast  Level Estimated
Thu 08:48:00 AM -21.6953 -42.9971 61° Northeast  Level Estimated
Thu 08:49:00 AM -21.6558 -42.9209 61° Northeast  Level Estimated
Thu 08:50:00 AM -21.6164 -42.8447 61° Northeast  Level Estimated
Thu 08:51:00 AM -21.5769 -42.7687 61° Northeast  Level Estimated
Thu 08:52:00 AM -21.5374 -42.6926 61° Northeast  Level Estimated
Thu 08:53:00 AM -21.4978 -42.6166 61° Northeast  Level Estimated
Thu 08:54:00 AM -21.4582 -42.5406 61° Northeast  Level Estimated
Thu 08:55:00 AM -21.4186 -42.4647 61° Northeast  Level Estimated
Thu 08:56:00 AM -21.3789 -42.3888 61° Northeast  Level Estimated
Thu 08:57:00 AM -21.3392 -42.3129 61° Northeast  Level Estimated
Thu 08:58:00 AM -21.2995 -42.2371 61° Northeast  Level Estimated
Thu 08:59:00 AM -21.2597 -42.1613 61° Northeast  Level Estimated
Thu 09:00:00 AM -21.2199 -42.0856 61° Northeast  Level Estimated
Thu 09:01:00 AM -21.1800 -42.0099 61° Northeast  Level Estimated
Thu 09:02:00 AM -21.1402 -41.9343 61° Northeast  Level Estimated
Thu 09:03:00 AM -21.1003 -41.8587 61° Northeast  Level Estimated
Thu 09:04:00 AM -21.0603 -41.7831 60° Northeast  Level Estimated
Thu 09:05:00 AM -21.0204 -41.7076 60° Northeast  Level Estimated
Thu 09:06:00 AM -20.9804 -41.6321 60° Northeast  Level Estimated
Thu 09:07:00 AM -20.9403 -41.5566 60° Northeast  Level Estimated
Thu 09:08:00 AM -20.9003 -41.4812 60° Northeast  Level Estimated
Thu 09:09:00 AM -20.8602 -41.4059 60° Northeast  Level Estimated
Thu 09:10:00 AM -20.8200 -41.3306 60° Northeast  Level Estimated
Thu 09:11:00 AM -20.7799 -41.2553 60° Northeast  Level Estimated
Thu 09:12:00 AM -20.7397 -41.1800 60° Northeast  Level Estimated
Thu 09:13:00 AM -20.6994 -41.1048 60° Northeast  Level Estimated
Thu 09:14:00 AM -20.6591 -41.0297 60° Northeast  Level Estimated
Thu 09:15:00 AM -20.6188 -40.9546 60° Northeast  Level Estimated
Thu 09:16:00 AM -20.5785 -40.8795 60° Northeast  Level Estimated
Thu 09:17:00 AM -20.5382 -40.8044 60° Northeast  Level Estimated
Thu 09:18:00 AM -20.4977 -40.7294 60° Northeast  Level Estimated
Thu 09:19:00 AM -20.4573 -40.6544 60° Northeast  Level Estimated
Thu 09:20:00 AM -20.4169 -40.5795 60° Northeast  Level Estimated
Thu 09:21:00 AM -20.3764 -40.5046 60° Northeast  Level Estimated
Thu 09:22:00 AM -20.3358 -40.4298 60° Northeast  Level Estimated
Thu 09:23:00 AM -20.2953 -40.3549 60° Northeast  Level Estimated
Thu 09:24:00 AM -20.2581 -40.2864 60° Northeast  Level Estimated
Thu 09:25:00 AM -20.2581 -40.2864 13° North  Level Estimated
Thu 09:26:00 AM -20.2581 -40.2864 13° North  Level Estimated
Thu 09:27:00 AM -20.2581 -40.2864 13° North  Level Estimated
Thu 09:28:00 AM -20.2581 -40.2864 13° North  Level Estimated
Thu 09:29:00 AM -20.2581 -40.2864 13° North  Level Estimated
Thu 09:30:00 AM -20.2581 -40.2864 13° North  Level Estimated
Thu 09:31:00 AM -20.2581 -40.2864 13° North  Level Estimated
Thu 09:32:00 AM -20.2581 -40.2864 13° North  Level Estimated
Thu 09:33:00 AM -20.2581 -40.2864 13° North  Level Estimated
Thu 09:34:00 AM -20.2581 -40.2864 13° North  Level Estimated
Thu 09:35:00 AM -20.2581 -40.2864 13° North  Level Estimated
Thu 09:36:00 AM -20.2581 -40.2864 13° North  Level Estimated
Thu 09:37:00 AM -20.2581 -40.2864 13° North  Level Estimated
Thu 09:38:00 AM -20.2581 -40.2864 13° North  Level Estimated
Thu 09:39:00 AM -20.2581 -40.2864 13° North  Level Estimated
Thu 09:40:00 AM -20.2581 -40.2864 13° North  Level Estimated

Login

Don't have an account? Register now (free) for customized features, flight alerts, and more!